Time;durP1;ratioP1;P1;durP2;ratioP2;P2;SDS_P1;SDS_P2;PMS_P1;PMS_P2;Temp;Humidity;BMP_temperature;BMP_pressure;BME280_temperature;BME280_humidity;BME280_pressure;Samples;Min_cycle;Max_cycle;Signal;HPM_P1;HPM_P2
2020/12/06 00:01:05;;;;;;;20.37;16.60;;;4.60;99.90;;;;;;5009934;28;20570;-66
2020/12/06 00:03:33;;;;;;;20.73;16.60;;;4.60;99.90;;;;;;4995743;28;20189;-65
2020/12/06 00:05:58;;;;;;;22.43;18.23;;;4.60;99.90;;;;;;5008552;28;20756;-64
2020/12/06 00:08:24;;;;;;;21.00;16.63;;;4.60;99.90;;;;;;5011265;28;20419;-65
2020/12/06 00:10:49;;;;;;;21.53;17.20;;;4.60;99.90;;;;;;5010110;28;20204;-64
2020/12/06 00:13:15;;;;;;;23.83;18.43;;;4.50;99.90;;;;;;5009869;28;20587;-65
2020/12/06 00:15:40;;;;;;;26.87;18.10;;;4.60;99.90;;;;;;5001141;28;20176;-65
2020/12/06 00:18:06;;;;;;;24.20;18.33;;;4.60;99.90;;;;;;5004482;28;20189;-63
2020/12/06 00:20:32;;;;;;;23.03;18.17;;;4.60;99.90;;;;;;4999961;28;20179;-65
2020/12/06 00:22:57;;;;;;;27.33;18.37;;;4.50;99.90;;;;;;4985315;28;20181;-66
2020/12/06 00:25:23;;;;;;;25.67;19.53;;;4.50;99.90;;;;;;5004213;28;20530;-63
2020/12/06 00:27:48;;;;;;;27.07;18.90;;;4.60;99.90;;;;;;4999701;28;20205;-65
2020/12/06 00:30:14;;;;;;;26.50;19.93;;;4.70;99.90;;;;;;4997209;28;20229;-64
2020/12/06 00:32:40;;;;;;;27.87;20.07;;;4.70;99.90;;;;;;5006628;28;20255;-64
2020/12/06 00:35:10;;;;;;;26.47;19.40;;;4.70;99.90;;;;;;5009787;28;20172;-67
2020/12/06 00:37:39;;;;;;;30.07;19.30;;;4.70;99.90;;;;;;5012458;28;20550;-66
2020/12/06 00:40:09;;;;;;;31.70;21.47;;;4.80;99.90;;;;;;5012535;28;20431;-66
2020/12/06 00:42:38;;;;;;;28.53;19.97;;;4.80;99.90;;;;;;4999992;28;20435;-66
2020/12/06 00:45:05;;;;;;;28.47;20.20;;;4.80;99.90;;;;;;5004295;28;20442;-65
2020/12/06 00:47:30;;;;;;;32.97;21.93;;;4.80;99.90;;;;;;5005056;28;20409;-66
2020/12/06 00:49:56;;;;;;;30.10;21.37;;;4.80;99.90;;;;;;5005890;28;20456;-67
2020/12/06 00:52:22;;;;;;;32.80;22.80;;;4.80;99.90;;;;;;5012205;28;20180;-65
2020/12/06 00:54:47;;;;;;;35.30;21.70;;;4.70;99.90;;;;;;5006083;28;20200;-63
2020/12/06 00:57:13;;;;;;;34.07;22.40;;;4.70;99.90;;;;;;5008745;28;20183;-65
2020/12/06 00:59:38;;;;;;;32.00;21.57;;;4.70;99.90;;;;;;5006603;28;20179;-66
2020/12/06 01:02:06;;;;;;;34.80;23.50;;;4.70;99.90;;;;;;5000443;28;20216;-67
2020/12/06 01:04:32;;;;;;;33.70;22.50;;;4.70;99.90;;;;;;5023053;28;20180;-65
2020/12/06 01:06:59;;;;;;;34.37;22.43;;;4.70;99.90;;;;;;5022464;28;20513;-66
2020/12/06 01:09:25;;;;;;;35.13;23.67;;;4.70;99.90;;;;;;5020091;28;20462;-64
2020/12/06 01:11:51;;;;;;;33.43;22.17;;;4.70;99.90;;;;;;5033043;28;20446;-65
2020/12/06 01:14:17;;;;;;;33.30;22.43;;;4.60;99.90;;;;;;5020394;28;20454;-67
2020/12/06 01:16:42;;;;;;;37.53;24.70;;;4.60;99.90;;;;;;5022671;28;20215;-63
2020/12/06 01:19:08;;;;;;;37.93;24.90;;;4.50;99.90;;;;;;5030437;28;20176;-67
2020/12/06 01:21:33;;;;;;;37.53;24.40;;;4.60;99.90;;;;;;5024226;28;20181;-68
2020/12/06 01:23:59;;;;;;;40.33;24.43;;;4.50;99.90;;;;;;5021253;28;20180;-67
2020/12/06 01:26:24;;;;;;;36.50;24.13;;;4.40;99.90;;;;;;5015525;28;20264;-64
2020/12/06 01:28:50;;;;;;;37.53;24.00;;;4.40;99.90;;;;;;5028271;28;20183;-65
2020/12/06 01:31:15;;;;;;;38.40;24.97;;;4.30;99.90;;;;;;5024226;28;20177;-65
2020/12/06 01:33:41;;;;;;;38.53;24.50;;;4.40;99.90;;;;;;5029903;28;20238;-66
2020/12/06 01:36:07;;;;;;;39.37;25.63;;;4.40;99.90;;;;;;5014615;28;20200;-67
2020/12/06 01:38:33;;;;;;;38.10;25.80;;;4.30;99.90;;;;;;5002855;28;20684;-65
2020/12/06 01:40:59;;;;;;;38.53;24.77;;;4.30;99.90;;;;;;5025969;28;20198;-65
2020/12/06 01:43:25;;;;;;;40.30;24.93;;;4.30;99.90;;;;;;5025678;28;20904;-66
2020/12/06 01:45:50;;;;;;;38.47;24.30;;;4.30;99.90;;;;;;5023581;28;20179;-67
2020/12/06 01:48:16;;;;;;;38.73;25.13;;;4.30;99.90;;;;;;5025567;28;20701;-64
2020/12/06 01:50:42;;;;;;;33.80;23.63;;;4.40;99.90;;;;;;4996954;28;20287;-65
2020/12/06 01:53:08;;;;;;;36.77;23.67;;;4.40;99.90;;;;;;5012643;28;20416;-63
2020/12/06 01:55:43;;;;;;;36.73;24.40;;;4.40;99.90;;;;;;5026242;28;20489;-66
2020/12/06 01:58:09;;;;;;;47.77;27.60;;;4.40;99.90;;;;;;5031073;28;20167;-66
2020/12/06 02:00:36;;;;;;;56.13;32.33;;;4.40;99.90;;;;;;5020588;28;20457;-65
2020/12/06 02:03:03;;;;;;;53.00;30.80;;;4.50;99.90;;;;;;5021354;28;20935;-66
2020/12/06 02:05:29;;;;;;;44.20;28.30;;;4.40;99.90;;;;;;5026596;28;20426;-65
2020/12/06 02:07:58;;;;;;;46.53;28.03;;;4.50;99.90;;;;;;5031755;28;20433;-65
2020/12/06 02:10:28;;;;;;;40.97;26.07;;;4.40;99.90;;;;;;5030399;28;20462;-64
2020/12/06 02:12:55;;;;;;;39.87;24.73;;;4.50;99.90;;;;;;5024384;28;20806;-64
2020/12/06 02:15:21;;;;;;;37.43;24.83;;;4.50;99.90;;;;;;5016731;28;20416;-64
2020/12/06 02:17:46;;;;;;;37.07;24.33;;;4.60;99.90;;;;;;5017816;28;20501;-65
2020/12/06 02:20:12;;;;;;;38.87;24.40;;;4.60;99.90;;;;;;5022731;28;20463;-64
2020/12/06 02:22:38;;;;;;;36.07;23.30;;;4.60;99.90;;;;;;5020187;28;20179;-64
2020/12/06 02:25:04;;;;;;;34.30;22.67;;;4.50;99.90;;;;;;5018076;28;20172;-66
2020/12/06 02:27:30;;;;;;;35.47;22.30;;;4.50;99.90;;;;;;5019659;28;20256;-66
2020/12/06 02:29:55;;;;;;;34.27;22.83;;;4.40;99.90;;;;;;5024331;28;20454;-65
2020/12/06 02:32:21;;;;;;;33.93;22.30;;;4.40;99.90;;;;;;5011781;28;20234;-66
2020/12/06 02:34:47;;;;;;;38.97;23.50;;;4.40;99.90;;;;;;5018712;28;20183;-66
2020/12/06 02:37:13;;;;;;;39.73;24.13;;;4.50;99.90;;;;;;5021590;28;20243;-65
2020/12/06 02:39:38;;;;;;;35.57;24.20;;;4.50;99.90;;;;;;5027715;28;20536;-64
2020/12/06 02:42:04;;;;;;;39.27;23.60;;;4.50;99.90;;;;;;5021739;28;20414;-65
2020/12/06 02:44:29;;;;;;;36.07;23.07;;;4.40;99.90;;;;;;5025695;28;20183;-67
2020/12/06 02:46:55;;;;;;;34.77;23.23;;;4.40;99.90;;;;;;5025523;28;20262;-65
2020/12/06 02:49:21;;;;;;;31.93;22.23;;;4.30;99.90;;;;;;5031270;28;20548;-65
2020/12/06 02:51:46;;;;;;;33.77;22.43;;;4.30;99.90;;;;;;5017664;28;20262;-67
2020/12/06 02:54:12;;;;;;;32.27;23.47;;;4.40;99.90;;;;;;5027319;28;20187;-68
2020/12/06 02:56:38;;;;;;;36.77;23.87;;;4.50;99.90;;;;;;5024540;28;20175;-65
2020/12/06 02:59:03;;;;;;;35.43;22.93;;;4.50;99.90;;;;;;5031824;28;20617;-65
2020/12/06 03:01:33;;;;;;;35.20;23.87;;;4.50;99.90;;;;;;5021584;28;20244;-65
2020/12/06 03:03:59;;;;;;;35.23;23.03;;;4.50;99.90;;;;;;5015517;28;20188;-63
2020/12/06 03:06:25;;;;;;;38.70;24.27;;;4.50;99.90;;;;;;5015770;28;20423;-65
2020/12/06 03:08:51;;;;;;;33.33;22.80;;;4.40;99.90;;;;;;5015494;28;20910;-65
2020/12/06 03:11:17;;;;;;;38.33;24.87;;;4.40;99.90;;;;;;5015392;28;20414;-66
2020/12/06 03:13:43;;;;;;;36.17;23.80;;;4.40;99.90;;;;;;5015532;28;20191;-65
2020/12/06 03:16:08;;;;;;;36.87;23.93;;;4.50;99.90;;;;;;5015366;28;20218;-66
2020/12/06 03:18:34;;;;;;;36.10;23.87;;;4.50;99.90;;;;;;5014186;28;20637;-66
2020/12/06 03:21:00;;;;;;;37.53;23.70;;;4.40;99.90;;;;;;5015362;28;20272;-65
2020/12/06 03:23:25;;;;;;;35.67;23.93;;;4.40;99.90;;;;;;5015257;28;20184;-66
2020/12/06 03:25:51;;;;;;;34.77;23.47;;;4.30;99.90;;;;;;5015502;28;20529;-67
2020/12/06 03:28:17;;;;;;;34.57;23.57;;;4.40;99.90;;;;;;5015056;28;20263;-64
2020/12/06 03:30:42;;;;;;;36.53;24.07;;;4.30;99.90;;;;;;5015148;28;20219;-64
2020/12/06 03:33:08;;;;;;;34.87;25.17;;;4.30;99.90;;;;;;5014919;28;20172;-64
2020/12/06 03:35:34;;;;;;;37.00;24.50;;;4.30;99.90;;;;;;5015363;28;20172;-66
2020/12/06 03:37:59;;;;;;;37.00;23.57;;;4.30;99.90;;;;;;5015055;28;20658;-66
2020/12/06 03:40:25;;;;;;;30.13;22.30;;;4.30;99.90;;;;;;5014916;28;20590;-67
2020/12/06 03:42:51;;;;;;;34.17;21.87;;;4.20;99.90;;;;;;5014910;28;20168;-65
2020/12/06 03:45:17;;;;;;;32.97;23.10;;;4.30;99.90;;;;;;4997083;28;20176;-63
2020/12/06 03:47:43;;;;;;;32.77;21.33;;;4.30;99.90;;;;;;5014863;28;20455;-65
2020/12/06 03:50:09;;;;;;;31.37;21.70;;;4.20;99.90;;;;;;5014596;28;20860;-64
2020/12/06 03:52:34;;;;;;;32.53;21.73;;;4.20;99.90;;;;;;5014839;28;20227;-65
2020/12/06 03:55:00;;;;;;;29.77;20.73;;;4.30;99.90;;;;;;5014676;28;20565;-65
2020/12/06 03:57:25;;;;;;;30.53;19.97;;;4.40;99.90;;;;;;5014637;28;20177;-65
2020/12/06 03:59:51;;;;;;;29.13;20.90;;;4.40;99.90;;;;;;5014623;28;20697;-65
2020/12/06 04:02:17;;;;;;;28.33;19.50;;;4.40;99.90;;;;;;5014506;28;20212;-67
2020/12/06 04:04:43;;;;;;;30.47;20.47;;;4.50;99.90;;;;;;5014543;28;20184;-67
2020/12/06 04:07:09;;;;;;;29.57;20.57;;;4.50;99.90;;;;;;5014197;28;20435;-68
2020/12/06 04:09:35;;;;;;;29.93;20.97;;;4.60;99.90;;;;;;5014052;28;20199;-66
2020/12/06 04:12:00;;;;;;;28.83;19.03;;;4.60;99.90;;;;;;5014487;28;20243;-66
2020/12/06 04:14:26;;;;;;;29.73;19.80;;;4.60;99.90;;;;;;5014438;28;20263;-66
2020/12/06 04:16:51;;;;;;;29.20;19.80;;;4.70;99.90;;;;;;5014420;28;20173;-67
2020/12/06 04:19:17;;;;;;;27.20;20.10;;;4.60;99.90;;;;;;5014246;28;20239;-66
2020/12/06 04:21:42;;;;;;;29.23;19.43;;;4.60;99.90;;;;;;5014294;28;20224;-64
2020/12/06 04:24:08;;;;;;;26.67;19.10;;;4.60;99.90;;;;;;5014357;28;20181;-66
2020/12/06 04:26:34;;;;;;;25.80;18.57;;;4.60;99.90;;;;;;5014380;28;20554;-65
2020/12/06 04:28:59;;;;;;;27.23;18.63;;;4.60;99.90;;;;;;5013832;28;20260;-65
2020/12/06 04:31:25;;;;;;;27.67;18.23;;;4.60;99.90;;;;;;5014162;28;20272;-66
2020/12/06 04:33:50;;;;;;;28.27;18.70;;;4.60;99.90;;;;;;5013983;28;20232;-66
2020/12/06 04:36:16;;;;;;;30.07;19.97;;;4.70;99.90;;;;;;5013922;28;20589;-63
2020/12/06 04:38:42;;;;;;;27.80;20.23;;;4.80;99.90;;;;;;5013881;28;20590;-67
2020/12/06 04:41:08;;;;;;;32.27;21.37;;;4.80;99.90;;;;;;5014208;28;20685;-66
2020/12/06 04:43:35;;;;;;;29.07;20.30;;;4.90;99.90;;;;;;5013858;28;20207;-68
2020/12/06 04:46:01;;;;;;;32.47;22.00;;;4.90;99.90;;;;;;5013594;28;20255;-67
2020/12/06 04:48:35;;;;;;;30.90;21.03;;;4.80;99.90;;;;;;5013997;28;20470;-65
2020/12/06 04:51:05;;;;;;;27.77;19.37;;;4.90;99.90;;;;;;5013456;28;20454;-64
2020/12/06 04:53:39;;;;;;;28.77;19.93;;;4.90;99.90;;;;;;5013841;28;20840;-66
2020/12/06 04:56:11;;;;;;;27.90;19.23;;;4.90;99.90;;;;;;5013516;28;20417;-64
2020/12/06 04:58:39;;;;;;;26.70;18.30;;;4.90;99.90;;;;;;5013748;28;20428;-64
2020/12/06 05:01:05;;;;;;;27.63;18.07;;;4.90;99.90;;;;;;5014847;28;20486;-64
2020/12/06 05:03:34;;;;;;;26.00;18.53;;;4.90;99.90;;;;;;5013270;28;20474;-64
2020/12/06 05:06:00;;;;;;;26.60;18.87;;;4.90;99.90;;;;;;4995773;28;20177;-66
2020/12/06 05:08:28;;;;;;;26.10;17.40;;;4.90;99.90;;;;;;5013155;28;20928;-64
2020/12/06 05:10:54;;;;;;;25.40;17.40;;;4.90;99.90;;;;;;5013311;28;20546;-66
2020/12/06 05:13:20;;;;;;;25.67;17.87;;;4.90;99.90;;;;;;5013069;28;20446;-64
2020/12/06 05:15:46;;;;;;;25.40;17.13;;;4.90;99.90;;;;;;5013169;28;20515;-65
2020/12/06 05:18:11;;;;;;;21.90;16.03;;;4.80;99.90;;;;;;5013343;28;20176;-65
2020/12/06 05:20:37;;;;;;;25.27;16.13;;;4.80;99.90;;;;;;5011945;28;20191;-66
2020/12/06 05:23:03;;;;;;;24.90;16.90;;;4.80;99.90;;;;;;5013104;28;20259;-67
2020/12/06 05:25:29;;;;;;;24.30;16.40;;;4.80;99.90;;;;;;5012910;28;20183;-67
2020/12/06 05:27:55;;;;;;;25.07;17.93;;;4.70;99.90;;;;;;5013062;28;20428;-68
2020/12/06 05:30:21;;;;;;;22.20;15.47;;;4.70;99.90;;;;;;5012701;28;20686;-66
2020/12/06 05:32:46;;;;;;;25.57;16.83;;;4.60;99.90;;;;;;5012589;28;20263;-65
2020/12/06 05:35:13;;;;;;;25.50;16.93;;;4.50;99.90;;;;;;5012930;28;20659;-65
2020/12/06 05:37:40;;;;;;;27.17;17.13;;;4.50;99.90;;;;;;5011553;28;20646;-65
2020/12/06 05:40:16;;;;;;;23.87;16.63;;;4.50;99.90;;;;;;5013165;28;20426;-64
2020/12/06 05:42:43;;;;;;;22.57;16.30;;;4.50;99.90;;;;;;5012797;28;20517;-66
2020/12/06 05:45:10;;;;;;;24.63;17.23;;;4.50;99.90;;;;;;5012898;28;20482;-68
2020/12/06 05:47:36;;;;;;;22.77;16.70;;;4.50;99.90;;;;;;5012349;28;20427;-67
2020/12/06 05:50:04;;;;;;;25.43;17.30;;;4.50;99.90;;;;;;5012437;28;20458;-65
2020/12/06 05:52:31;;;;;;;27.07;18.27;;;4.40;99.90;;;;;;5012572;28;20443;-64
2020/12/06 05:54:57;;;;;;;26.23;17.57;;;4.40;99.90;;;;;;5012415;28;20502;-69
2020/12/06 05:57:28;;;;;;;27.73;18.77;;;4.40;99.90;;;;;;5012412;28;20408;-68
2020/12/06 05:59:59;;;;;;;29.07;18.03;;;4.50;99.90;;;;;;5012208;28;20474;-70
2020/12/06 06:02:25;;;;;;;28.13;18.90;;;4.50;99.90;;;;;;5013552;28;20463;-65
2020/12/06 06:04:52;;;;;;;27.00;18.23;;;4.50;99.90;;;;;;5012310;28;20898;-67
2020/12/06 06:07:22;;;;;;;27.53;18.23;;;4.60;99.90;;;;;;5012274;28;20758;-66
2020/12/06 06:09:58;;;;;;;31.83;20.17;;;4.60;99.90;;;;;;5012398;28;20468;-68
2020/12/06 06:12:34;;;;;;;24.97;17.00;;;4.50;99.90;;;;;;5011899;28;20449;-67
2020/12/06 06:15:02;;;;;;;25.67;17.47;;;4.50;99.90;;;;;;5011155;28;20450;-67
2020/12/06 06:17:30;;;;;;;26.97;17.03;;;4.50;99.90;;;;;;5012015;28;20450;-66
2020/12/06 06:19:56;;;;;;;24.97;17.03;;;4.50;99.90;;;;;;5012235;28;20764;-64
2020/12/06 06:22:43;;;;;;;27.97;17.87;;;4.40;99.90;;;;;;5011656;28;20511;-68
2020/12/06 06:25:11;;;;;;;27.70;17.57;;;4.40;99.90;;;;;;5012051;28;20455;-66
2020/12/06 06:27:40;;;;;;;28.80;19.33;;;4.40;99.90;;;;;;5011832;28;20434;-65
2020/12/06 06:30:07;;;;;;;29.07;17.63;;;4.40;99.90;;;;;;5011653;28;20490;-66
2020/12/06 06:32:32;;;;;;;25.90;17.80;;;4.50;99.90;;;;;;5011522;28;20518;-65
2020/12/06 06:35:00;;;;;;;25.40;17.73;;;4.50;99.90;;;;;;5011876;28;20498;-64
2020/12/06 06:37:30;;;;;;;27.53;17.93;;;4.50;99.90;;;;;;5010703;28;20168;-65
2020/12/06 06:40:00;;;;;;;26.60;17.83;;;4.40;99.90;;;;;;5012004;28;20422;-64
2020/12/06 06:42:27;;;;;;;24.90;17.47;;;4.50;99.90;;;;;;5011875;28;20423;-66
2020/12/06 06:45:02;;;;;;;26.83;17.83;;;4.50;99.90;;;;;;5011914;28;20762;-66
2020/12/06 06:47:28;;;;;;;27.37;17.50;;;4.50;99.90;;;;;;5011849;28;20505;-66
2020/12/06 06:49:58;;;;;;;27.03;18.17;;;4.50;99.90;;;;;;5010477;28;20506;-68
2020/12/06 06:52:26;;;;;;;28.37;18.77;;;4.50;99.90;;;;;;5011742;28;20446;-63
2020/12/06 06:54:53;;;;;;;24.67;17.87;;;4.60;99.90;;;;;;5011849;28;20920;-66
2020/12/06 06:57:21;;;;;;;26.87;17.80;;;4.50;99.90;;;;;;5011712;28;20430;-65
2020/12/06 06:59:52;;;;;;;24.87;16.73;;;4.50;99.90;;;;;;5011663;28;20602;-68
2020/12/06 07:02:32;;;;;;;29.13;18.17;;;4.60;99.90;;;;;;5012891;28;20478;-64
2020/12/06 07:04:59;;;;;;;25.67;17.13;;;4.60;99.90;;;;;;5010532;28;20425;-66
2020/12/06 07:07:49;;;;;;;26.37;17.73;;;4.60;99.90;;;;;;5011305;28;20415;-67
2020/12/06 07:10:16;;;;;;;25.70;16.20;;;4.60;99.90;;;;;;5011079;28;20557;-65
2020/12/06 07:12:49;;;;;;;25.13;15.27;;;4.60;99.90;;;;;;5011423;28;20929;-67
2020/12/06 07:15:17;;;;;;;22.23;15.13;;;4.50;99.90;;;;;;5011549;28;20450;-68
2020/12/06 07:17:44;;;;;;;23.80;16.97;;;4.50;99.90;;;;;;5011486;28;20419;-65
2020/12/06 07:20:12;;;;;;;24.00;16.60;;;4.40;99.90;;;;;;5011367;28;20551;-65
2020/12/06 07:22:38;;;;;;;25.67;16.70;;;4.40;99.90;;;;;;5011498;28;20423;-67
2020/12/06 07:25:05;;;;;;;26.80;17.37;;;4.50;99.90;;;;;;5011321;28;20824;-66
2020/12/06 07:27:37;;;;;;;27.03;17.57;;;4.40;99.90;;;;;;4993542;28;20185;-65
2020/12/06 07:30:08;;;;;;;25.63;16.60;;;4.50;99.90;;;;;;5011336;28;20462;-66
2020/12/06 07:32:35;;;;;;;25.63;16.20;;;4.50;99.90;;;;;;5011284;28;20416;-69
2020/12/06 07:35:00;;;;;;;26.30;16.50;;;4.50;99.90;;;;;;5011394;28;20419;-67
2020/12/06 07:37:26;;;;;;;23.77;15.50;;;4.50;99.90;;;;;;5011066;28;20417;-67
2020/12/06 07:39:53;;;;;;;23.83;15.50;;;4.50;99.90;;;;;;5011367;28;20177;-68
2020/12/06 07:42:27;;;;;;;22.53;14.97;;;4.50;99.90;;;;;;5011238;28;20248;-69
2020/12/06 07:44:55;;;;;;;21.97;14.97;;;4.50;99.90;;;;;;5014610;28;20859;-66
2020/12/06 07:47:21;;;;;;;23.87;14.27;;;4.50;99.90;;;;;;5014841;28;20499;-68
2020/12/06 07:49:55;;;;;;;20.63;14.87;;;4.50;99.90;;;;;;5014549;28;20458;-65
2020/12/06 07:52:22;;;;;;;20.00;13.40;;;4.50;99.90;;;;;;5014796;28;20455;-64
2020/12/06 07:55:01;;;;;;;21.73;14.83;;;4.50;99.90;;;;;;5014749;28;20772;-65
2020/12/06 07:57:49;;;;;;;21.70;14.57;;;4.50;99.90;;;;;;5013723;28;20419;-65
2020/12/06 08:00:20;;;;;;;18.97;13.27;;;4.50;99.90;;;;;;5014768;28;20427;-66
2020/12/06 08:02:49;;;;;;;22.50;15.37;;;4.50;99.90;;;;;;5016308;28;20483;-67
2020/12/06 08:05:27;;;;;;;22.43;14.53;;;4.50;99.90;;;;;;5014613;28;20936;-66
2020/12/06 08:07:57;;;;;;;19.33;13.33;;;4.50;99.90;;;;;;5014593;28;20502;-68
2020/12/06 08:10:25;;;;;;;18.87;12.40;;;4.60;99.90;;;;;;5014120;28;20546;-66
2020/12/06 08:12:53;;;;;;;17.67;11.87;;;4.50;99.90;;;;;;5014291;28;20473;-65
2020/12/06 08:15:26;;;;;;;19.40;11.87;;;4.60;99.90;;;;;;5012649;28;20474;-66
2020/12/06 08:17:53;;;;;;;18.63;11.27;;;4.60;99.90;;;;;;5014213;28;20772;-67
2020/12/06 08:20:20;;;;;;;18.43;11.23;;;4.60;99.90;;;;;;5014129;28;20554;-64
2020/12/06 08:22:59;;;;;;;19.10;11.07;;;4.50;99.90;;;;;;5014060;28;20473;-64
2020/12/06 08:25:30;;;;;;;17.20;10.70;;;4.50;99.90;;;;;;5014002;28;20419;-67
2020/12/06 08:27:57;;;;;;;17.63;11.77;;;4.50;99.90;;;;;;5013940;28;20427;-66
2020/12/06 08:30:27;;;;;;;16.77;10.30;;;4.40;99.90;;;;;;5013874;28;20455;-67
2020/12/06 08:33:00;;;;;;;18.30;10.77;;;4.50;99.90;;;;;;5014018;28;20424;-66
2020/12/06 08:35:47;;;;;;;16.70;11.03;;;4.50;99.90;;;;;;5012301;28;20427;-66
2020/12/06 08:38:19;;;;;;;17.07;11.23;;;4.50;99.90;;;;;;5013223;28;20435;-64
2020/12/06 08:41:00;;;;;;;19.97;11.00;;;4.50;99.90;;;;;;5013692;28;20953;-64
2020/12/06 08:43:42;;;;;;;16.67;10.87;;;4.50;99.90;;;;;;5013637;28;20427;-65
2020/12/06 08:46:15;;;;;;;19.70;12.13;;;4.50;99.90;;;;;;5012673;28;20910;-65
2020/12/06 08:48:42;;;;;;;16.53;10.73;;;4.60;99.90;;;;;;5013664;28;20493;-65
2020/12/06 08:51:25;;;;;;;18.93;10.80;;;4.60;99.90;;;;;;5013503;28;21010;-67
2020/12/06 08:53:51;;;;;;;18.87;11.20;;;4.60;99.90;;;;;;5013405;28;20419;-67
2020/12/06 08:56:37;;;;;;;18.93;11.60;;;4.60;99.90;;;;;;5013422;28;20439;-68
2020/12/06 08:59:08;;;;;;;17.57;11.47;;;4.60;99.90;;;;;;5013607;28;20179;-66
2020/12/06 09:01:45;;;;;;;19.33;11.33;;;4.60;99.90;;;;;;5013926;28;20454;-64
2020/12/06 09:04:11;;;;;;;18.70;12.00;;;4.60;99.90;;;;;;5013146;28;20466;-67
2020/12/06 09:06:38;;;;;;;18.57;10.97;;;4.60;99.90;;;;;;5013255;28;20490;-67
2020/12/06 09:09:04;;;;;;;18.93;11.87;;;4.60;99.90;;;;;;5013142;28;20191;-64
2020/12/06 09:11:29;;;;;;;19.17;11.53;;;4.70;99.90;;;;;;5013053;28;20407;-64
2020/12/06 09:13:55;;;;;;;18.20;12.50;;;4.80;99.90;;;;;;5013120;28;20652;-64
2020/12/06 09:16:20;;;;;;;18.30;11.87;;;4.90;99.90;;;;;;5013054;28;20176;-65
2020/12/06 09:18:46;;;;;;;21.60;13.27;;;4.90;99.90;;;;;;5008294;28;20177;-63
2020/12/06 09:21:12;;;;;;;18.77;12.13;;;4.90;99.90;;;;;;4993616;28;20181;-67
2020/12/06 09:23:38;;;;;;;19.80;12.80;;;5.00;99.90;;;;;;4993685;28;20173;-67
2020/12/06 09:26:05;;;;;;;17.80;12.33;;;5.00;99.90;;;;;;4993360;28;20941;-64
2020/12/06 09:28:31;;;;;;;21.20;13.63;;;4.90;99.90;;;;;;4993448;28;20178;-68
2020/12/06 09:30:57;;;;;;;20.53;13.97;;;4.90;99.90;;;;;;4998029;28;20485;-66
2020/12/06 09:33:22;;;;;;;21.07;14.10;;;4.90;99.90;;;;;;5013172;28;20507;-67
2020/12/06 09:35:48;;;;;;;21.87;13.43;;;4.90;99.90;;;;;;5012843;28;20184;-65
2020/12/06 09:38:14;;;;;;;20.43;13.20;;;5.00;99.90;;;;;;5003131;28;20221;-68
2020/12/06 09:40:40;;;;;;;21.07;14.00;;;4.90;99.90;;;;;;5000337;28;20181;-67
2020/12/06 09:43:06;;;;;;;19.63;13.03;;;4.90;99.90;;;;;;4992855;28;20474;-67
2020/12/06 09:45:31;;;;;;;16.50;11.53;;;5.00;99.90;;;;;;4993164;28;20197;-65
2020/12/06 09:47:57;;;;;;;18.53;12.97;;;4.90;99.90;;;;;;4975620;28;20181;-67
2020/12/06 09:50:22;;;;;;;17.20;11.80;;;4.90;99.90;;;;;;4993022;28;20659;-65
2020/12/06 09:52:48;;;;;;;16.00;10.80;;;4.90;99.90;;;;;;4999629;28;20209;-66
2020/12/06 09:55:20;;;;;;;12.80;8.50;;;5.00;99.90;;;;;;4992672;28;20232;-67
2020/12/06 09:57:46;;;;;;;14.90;10.93;;;5.00;99.90;;;;;;4992802;28;20452;-66
2020/12/06 10:00:12;;;;;;;15.13;10.20;;;5.00;99.90;;;;;;4992986;28;20589;-66
2020/12/06 10:02:51;;;;;;;12.50;9.23;;;5.00;99.90;;;;;;5007344;28;20215;-66
2020/12/06 10:05:17;;;;;;;9.17;7.50;;;5.10;99.90;;;;;;5011710;28;20200;-67
2020/12/06 10:07:42;;;;;;;11.53;8.17;;;5.20;99.90;;;;;;5012303;28;20467;-66
2020/12/06 10:10:08;;;;;;;11.97;8.27;;;5.30;99.90;;;;;;5012240;28;20232;-65
2020/12/06 10:12:35;;;;;;;11.17;7.73;;;5.30;99.90;;;;;;5012166;28;20701;-67
2020/12/06 10:15:00;;;;;;;10.73;8.03;;;5.30;99.90;;;;;;5012081;28;20411;-67
2020/12/06 10:17:26;;;;;;;11.67;7.90;;;5.40;99.90;;;;;;5012133;28;20420;-68
2020/12/06 10:19:52;;;;;;;10.97;7.57;;;5.30;99.90;;;;;;5011979;28;20642;-68
2020/12/06 10:22:18;;;;;;;9.90;7.23;;;5.30;99.90;;;;;;5012040;28;20180;-65
2020/12/06 10:24:44;;;;;;;11.57;7.17;;;5.40;99.90;;;;;;5011672;28;20446;-66
2020/12/06 10:27:09;;;;;;;10.97;7.83;;;5.30;99.90;;;;;;5012019;28;20179;-66
2020/12/06 10:29:35;;;;;;;11.00;8.13;;;5.30;99.90;;;;;;5011807;28;20232;-66
2020/12/06 10:32:01;;;;;;;9.70;7.53;;;5.40;99.90;;;;;;5011972;28;20183;-65
2020/12/06 10:34:27;;;;;;;9.20;6.87;;;5.40;99.90;;;;;;5012142;28;20251;-65
2020/12/06 10:36:55;;;;;;;9.93;7.23;;;5.50;99.90;;;;;;5011716;28;20623;-67
2020/12/06 10:39:21;;;;;;;11.50;7.80;;;5.50;99.90;;;;;;5011883;28;20427;-65
2020/12/06 10:41:49;;;;;;;9.47;7.03;;;5.50;99.90;;;;;;5011648;28;20897;-65
2020/12/06 10:44:14;;;;;;;7.47;6.00;;;5.60;99.90;;;;;;5011767;28;20771;-65
2020/12/06 10:46:40;;;;;;;9.07;6.70;;;5.70;99.90;;;;;;5011620;28;20403;-68
2020/12/06 10:49:06;;;;;;;8.30;6.20;;;5.60;99.90;;;;;;5011714;28;20533;-68
2020/12/06 10:51:32;;;;;;;7.03;5.97;;;5.70;99.90;;;;;;5011786;28;20176;-64
2020/12/06 10:53:58;;;;;;;9.10;6.40;;;5.80;99.90;;;;;;5009012;28;20190;-67
2020/12/06 10:56:23;;;;;;;7.67;5.57;;;5.70;99.90;;;;;;4993665;28;20191;-66
2020/12/06 10:58:50;;;;;;;9.03;6.30;;;5.70;99.90;;;;;;5011090;28;20569;-65
2020/12/06 11:01:15;;;;;;;5.53;4.67;;;5.80;99.90;;;;;;5013775;28;20535;-68
2020/12/06 11:03:41;;;;;;;6.60;5.20;;;5.80;99.90;;;;;;4993723;28;20428;-67
2020/12/06 11:06:07;;;;;;;6.37;5.20;;;5.80;99.90;;;;;;4993400;28;20224;-68
2020/12/06 11:08:32;;;;;;;8.23;6.20;;;5.70;99.90;;;;;;5011325;28;20219;-65
2020/12/06 11:10:58;;;;;;;6.17;5.33;;;5.80;99.90;;;;;;5008086;28;20204;-66
2020/12/06 11:13:23;;;;;;;6.77;5.77;;;5.80;99.90;;;;;;4989576;28;20174;-68
2020/12/06 11:15:49;;;;;;;6.70;5.57;;;5.80;99.90;;;;;;5003510;28;20185;-66
2020/12/06 11:18:14;;;;;;;7.00;5.77;;;5.90;99.90;;;;;;5012252;28;20540;-65
2020/12/06 11:20:40;;;;;;;5.77;4.43;;;6.00;99.90;;;;;;5001101;28;20184;-65
2020/12/06 11:23:06;;;;;;;7.63;5.90;;;6.00;99.90;;;;;;5002373;28;20221;-66
2020/12/06 11:25:31;;;;;;;5.13;4.53;;;6.00;99.90;;;;;;5010689;28;20180;-65
2020/12/06 11:27:57;;;;;;;6.77;5.50;;;6.00;99.90;;;;;;5002668;28;20180;-66
2020/12/06 11:30:23;;;;;;;6.83;5.57;;;5.90;99.90;;;;;;5004558;28;20205;-67
2020/12/06 11:32:49;;;;;;;6.90;6.00;;;5.90;99.90;;;;;;5006816;28;20268;-65
2020/12/06 11:35:14;;;;;;;7.63;6.20;;;6.00;99.90;;;;;;5009101;28;20259;-65
2020/12/06 11:37:40;;;;;;;7.40;5.90;;;6.10;99.90;;;;;;4994387;28;20177;-67
2020/12/06 11:40:05;;;;;;;7.87;5.67;;;6.10;99.90;;;;;;5001107;28;20591;-69
2020/12/06 11:42:31;;;;;;;17.17;12.97;;;6.20;99.90;;;;;;5014163;28;20196;-64
2020/12/06 11:44:56;;;;;;;7.70;6.27;;;6.20;99.90;;;;;;5003299;28;20275;-66
2020/12/06 11:47:23;;;;;;;7.40;6.30;;;6.30;99.90;;;;;;5007956;28;20655;-67
2020/12/06 11:49:49;;;;;;;9.33;6.53;;;6.30;99.90;;;;;;4994227;28;20201;-66
2020/12/06 11:52:14;;;;;;;7.07;5.83;;;6.30;99.90;;;;;;4998604;28;20922;-65
2020/12/06 11:54:40;;;;;;;7.83;6.40;;;6.40;99.90;;;;;;5009497;28;20207;-66
2020/12/06 11:57:06;;;;;;;9.27;7.17;;;6.40;99.90;;;;;;5007240;28;20180;-67
2020/12/06 11:59:31;;;;;;;16.00;11.23;;;6.40;99.90;;;;;;5004936;28;20179;-65
2020/12/06 12:01:57;;;;;;;16.73;10.40;;;6.30;99.90;;;;;;5013731;28;20248;-67
2020/12/06 12:04:23;;;;;;;19.33;13.13;;;6.20;99.90;;;;;;5013751;28;20215;-65
2020/12/06 12:06:49;;;;;;;18.23;12.73;;;6.20;99.90;;;;;;5013629;28;20272;-67
2020/12/06 12:09:15;;;;;;;17.17;11.87;;;6.10;99.90;;;;;;5013649;28;20428;-67
2020/12/06 12:11:40;;;;;;;16.70;12.23;;;6.10;99.90;;;;;;5006024;28;20611;-66
2020/12/06 12:14:06;;;;;;;21.33;14.83;;;6.00;99.90;;;;;;5000908;28;20263;-65
2020/12/06 12:16:32;;;;;;;21.47;14.40;;;6.00;99.90;;;;;;5013881;28;20180;-67
2020/12/06 12:19:08;;;;;;;22.87;15.87;;;6.00;99.90;;;;;;5013775;28;20176;-67
2020/12/06 12:21:33;;;;;;;22.73;15.50;;;6.00;99.90;;;;;;4998512;28;20455;-67
2020/12/06 12:23:59;;;;;;;28.70;18.70;;;6.00;99.90;;;;;;5013682;28;21003;-66
2020/12/06 12:26:26;;;;;;;28.33;18.33;;;6.00;99.90;;;;;;5013049;28;20188;-66
2020/12/06 12:28:53;;;;;;;24.47;17.30;;;6.00;99.90;;;;;;5011367;28;20630;-65
2020/12/06 12:31:19;;;;;;;25.70;17.00;;;6.00;99.90;;;;;;5006425;28;20463;-66
2020/12/06 12:33:44;;;;;;;25.20;17.17;;;6.00;99.90;;;;;;5013272;28;20423;-67
2020/12/06 12:36:10;;;;;;;26.27;17.27;;;6.00;99.90;;;;;;5013024;28;20422;-66
2020/12/06 12:38:36;;;;;;;31.73;20.57;;;6.10;99.90;;;;;;5013186;28;20172;-65
2020/12/06 12:41:02;;;;;;;30.97;19.97;;;6.10;99.90;;;;;;5009712;28;20185;-64